sensor_id;sensor_type;location;lat;lon;timestamp;temperature;humidity
32506;DHT22;18955;51.224;8.482;2023-05-09T00:01:34;12.70;86.60
32506;DHT22;18955;51.224;8.482;2023-05-09T00:04:01;12.70;86.70
32506;DHT22;18955;51.224;8.482;2023-05-09T00:06:27;12.70;86.70
32506;DHT22;18955;51.224;8.482;2023-05-09T00:08:53;12.60;86.60
32506;DHT22;18955;51.224;8.482;2023-05-09T00:11:19;12.60;86.60
32506;DHT22;18955;51.224;8.482;2023-05-09T00:13:47;12.60;86.60
32506;DHT22;18955;51.224;8.482;2023-05-09T00:16:13;12.60;86.60
32506;DHT22;18955;51.224;8.482;2023-05-09T00:18:41;12.60;86.60
32506;DHT22;18955;51.224;8.482;2023-05-09T00:21:07;12.60;86.70
32506;DHT22;18955;51.224;8.482;2023-05-09T00:23:34;12.60;86.70
32506;DHT22;18955;51.224;8.482;2023-05-09T00:26:00;12.50;86.70
32506;DHT22;18955;51.224;8.482;2023-05-09T00:28:26;12.50;86.70
32506;DHT22;18955;51.224;8.482;2023-05-09T00:30:52;12.50;86.70
32506;DHT22;18955;51.224;8.482;2023-05-09T00:33:19;12.50;86.60
32506;DHT22;18955;51.224;8.482;2023-05-09T00:35:45;12.50;86.60
32506;DHT22;18955;51.224;8.482;2023-05-09T00:38:11;12.50;86.60
32506;DHT22;18955;51.224;8.482;2023-05-09T00:40:37;12.50;86.70
32506;DHT22;18955;51.224;8.482;2023-05-09T00:43:04;12.40;87.10
32506;DHT22;18955;51.224;8.482;2023-05-09T00:45:30;12.40;86.70
32506;DHT22;18955;51.224;8.482;2023-05-09T00:47:56;12.40;86.70
32506;DHT22;18955;51.224;8.482;2023-05-09T00:50:22;12.40;86.70
32506;DHT22;18955;51.224;8.482;2023-05-09T00:52:49;12.40;86.80
32506;DHT22;18955;51.224;8.482;2023-05-09T00:55:16;12.40;86.90
32506;DHT22;18955;51.224;8.482;2023-05-09T00:57:42;12.40;86.70
32506;DHT22;18955;51.224;8.482;2023-05-09T01:00:09;12.30;86.60
32506;DHT22;18955;51.224;8.482;2023-05-09T01:02:39;12.30;86.60
32506;DHT22;18955;51.224;8.482;2023-05-09T01:05:05;12.30;86.60
32506;DHT22;18955;51.224;8.482;2023-05-09T01:07:32;12.30;86.70
32506;DHT22;18955;51.224;8.482;2023-05-09T01:23:45;12.20;86.80
32506;DHT22;18955;51.224;8.482;2023-05-09T01:26:01;12.20;86.70
32506;DHT22;18955;51.224;8.482;2023-05-09T01:31:09;12.10;86.70
32506;DHT22;18955;51.224;8.482;2023-05-09T01:33:36;12.10;86.80
32506;DHT22;18955;51.224;8.482;2023-05-09T01:36:03;12.10;86.90
32506;DHT22;18955;51.224;8.482;2023-05-09T01:38:30;12.10;87.00
32506;DHT22;18955;51.224;8.482;2023-05-09T01:40:57;12.00;86.90
32506;DHT22;18955;51.224;8.482;2023-05-09T01:43:26;12.10;87.00
32506;DHT22;18955;51.224;8.482;2023-05-09T01:45:53;12.00;86.90
32506;DHT22;18955;51.224;8.482;2023-05-09T01:48:19;12.00;86.90
32506;DHT22;18955;51.224;8.482;2023-05-09T01:50:46;12.00;86.90
32506;DHT22;18955;51.224;8.482;2023-05-09T01:53:13;12.00;86.90
32506;DHT22;18955;51.224;8.482;2023-05-09T01:55:42;12.00;86.80
32506;DHT22;18955;51.224;8.482;2023-05-09T01:58:11;12.00;86.80
32506;DHT22;18955;51.224;8.482;2023-05-09T02:00:37;12.00;86.90
32506;DHT22;18955;51.224;8.482;2023-05-09T02:03:03;12.00;87.00
32506;DHT22;18955;51.224;8.482;2023-05-09T02:05:31;11.90;86.90
32506;DHT22;18955;51.224;8.482;2023-05-09T02:07:58;11.90;87.10
32506;DHT22;18955;51.224;8.482;2023-05-09T02:10:25;11.90;86.90
32506;DHT22;18955;51.224;8.482;2023-05-09T02:12:52;11.90;87.00
32506;DHT22;18955;51.224;8.482;2023-05-09T02:15:18;11.90;86.90
32506;DHT22;18955;51.224;8.482;2023-05-09T02:17:44;11.90;87.00
32506;DHT22;18955;51.224;8.482;2023-05-09T02:20:11;11.90;87.00
32506;DHT22;18955;51.224;8.482;2023-05-09T02:22:38;11.90;87.00
32506;DHT22;18955;51.224;8.482;2023-05-09T02:25:05;11.80;86.80
32506;DHT22;18955;51.224;8.482;2023-05-09T02:27:32;11.80;87.00
32506;DHT22;18955;51.224;8.482;2023-05-09T02:30:00;11.80;87.10
32506;DHT22;18955;51.224;8.482;2023-05-09T02:32:32;11.80;87.70
32506;DHT22;18955;51.224;8.482;2023-05-09T02:34:59;11.80;87.10
32506;DHT22;18955;51.224;8.482;2023-05-09T02:37:26;11.80;87.30
32506;DHT22;18955;51.224;8.482;2023-05-09T02:39:52;11.80;87.10
32506;DHT22;18955;51.224;8.482;2023-05-09T02:42:21;11.80;87.10
32506;DHT22;18955;51.224;8.482;2023-05-09T02:44:47;11.80;86.90
32506;DHT22;18955;51.224;8.482;2023-05-09T02:47:15;11.80;87.20
32506;DHT22;18955;51.224;8.482;2023-05-09T02:49:41;11.70;87.10
32506;DHT22;18955;51.224;8.482;2023-05-09T02:52:07;11.70;87.20
32506;DHT22;18955;51.224;8.482;2023-05-09T02:54:33;11.70;87.30
32506;DHT22;18955;51.224;8.482;2023-05-09T02:56:59;11.70;87.20
32506;DHT22;18955;51.224;8.482;2023-05-09T02:59:25;11.70;87.30
32506;DHT22;18955;51.224;8.482;2023-05-09T03:01:51;11.70;87.20
32506;DHT22;18955;51.224;8.482;2023-05-09T03:04:17;11.70;87.20
32506;DHT22;18955;51.224;8.482;2023-05-09T03:06:46;11.70;87.20
32506;DHT22;18955;51.224;8.482;2023-05-09T03:09:12;11.70;87.20
32506;DHT22;18955;51.224;8.482;2023-05-09T03:11:38;11.70;87.00
32506;DHT22;18955;51.224;8.482;2023-05-09T03:14:04;11.70;87.20
32506;DHT22;18955;51.224;8.482;2023-05-09T03:16:31;11.70;87.10
32506;DHT22;18955;51.224;8.482;2023-05-09T03:18:57;11.70;87.10
32506;DHT22;18955;51.224;8.482;2023-05-09T03:21:23;11.60;87.10
32506;DHT22;18955;51.224;8.482;2023-05-09T03:23:49;11.60;87.10
32506;DHT22;18955;51.224;8.482;2023-05-09T03:26:15;11.60;87.10
32506;DHT22;18955;51.224;8.482;2023-05-09T03:28:41;11.60;87.10
32506;DHT22;18955;51.224;8.482;2023-05-09T03:31:07;11.60;87.20
32506;DHT22;18955;51.224;8.482;2023-05-09T03:33:34;11.60;87.00
32506;DHT22;18955;51.224;8.482;2023-05-09T03:36:01;11.60;87.10
32506;DHT22;18955;51.224;8.482;2023-05-09T03:38:27;11.60;87.30
32506;DHT22;18955;51.224;8.482;2023-05-09T03:40:53;11.60;87.60
32506;DHT22;18955;51.224;8.482;2023-05-09T03:43:20;11.60;87.30
32506;DHT22;18955;51.224;8.482;2023-05-09T03:45:46;11.60;87.20
32506;DHT22;18955;51.224;8.482;2023-05-09T03:48:13;11.50;87.30
32506;DHT22;18955;51.224;8.482;2023-05-09T03:50:48;11.60;87.30
32506;DHT22;18955;51.224;8.482;2023-05-09T03:53:14;11.50;87.30
32506;DHT22;18955;51.224;8.482;2023-05-09T03:55:42;11.50;87.20
32506;DHT22;18955;51.224;8.482;2023-05-09T03:58:10;11.50;87.20
32506;DHT22;18955;51.224;8.482;2023-05-09T04:00:39;11.60;87.20
32506;DHT22;18955;51.224;8.482;2023-05-09T04:03:10;11.50;87.10
32506;DHT22;18955;51.224;8.482;2023-05-09T04:05:40;11.60;87.30
32506;DHT22;18955;51.224;8.482;2023-05-09T04:08:11;11.50;87.20
32506;DHT22;18955;51.224;8.482;2023-05-09T04:10:38;11.50;87.20
32506;DHT22;18955;51.224;8.482;2023-05-09T04:13:04;11.50;87.30
32506;DHT22;18955;51.224;8.482;2023-05-09T04:15:30;11.50;87.30
32506;DHT22;18955;51.224;8.482;2023-05-09T04:17:57;11.50;87.30
32506;DHT22;18955;51.224;8.482;2023-05-09T04:20:23;11.50;87.40
32506;DHT22;18955;51.224;8.482;2023-05-09T04:22:49;11.50;87.40
32506;DHT22;18955;51.224;8.482;2023-05-09T04:25:17;11.50;87.50
32506;DHT22;18955;51.224;8.482;2023-05-09T04:27:45;11.50;87.30
32506;DHT22;18955;51.224;8.482;2023-05-09T04:30:11;11.50;87.20
32506;DHT22;18955;51.224;8.482;2023-05-09T04:32:37;11.50;87.20
32506;DHT22;18955;51.224;8.482;2023-05-09T04:35:04;11.50;87.30
32506;DHT22;18955;51.224;8.482;2023-05-09T04:37:36;11.50;87.50
32506;DHT22;18955;51.224;8.482;2023-05-09T04:40:03;11.50;87.30
32506;DHT22;18955;51.224;8.482;2023-05-09T04:42:37;11.50;87.60
32506;DHT22;18955;51.224;8.482;2023-05-09T04:45:04;11.50;87.60
32506;DHT22;18955;51.224;8.482;2023-05-09T04:47:30;11.50;87.80
32506;DHT22;18955;51.224;8.482;2023-05-09T04:49:56;11.50;87.60
32506;DHT22;18955;51.224;8.482;2023-05-09T04:52:22;11.50;87.50
32506;DHT22;18955;51.224;8.482;2023-05-09T04:54:48;11.50;87.50
32506;DHT22;18955;51.224;8.482;2023-05-09T04:57:18;11.50;87.60
32506;DHT22;18955;51.224;8.482;2023-05-09T04:59:46;11.50;87.70
32506;DHT22;18955;51.224;8.482;2023-05-09T05:02:13;11.50;87.90
32506;DHT22;18955;51.224;8.482;2023-05-09T05:04:40;11.50;87.80
32506;DHT22;18955;51.224;8.482;2023-05-09T05:07:07;11.50;87.80
32506;DHT22;18955;51.224;8.482;2023-05-09T05:09:35;11.50;87.90
32506;DHT22;18955;51.224;8.482;2023-05-09T05:12:01;11.50;87.80
32506;DHT22;18955;51.224;8.482;2023-05-09T05:14:27;11.50;87.80
32506;DHT22;18955;51.224;8.482;2023-05-09T05:16:54;11.50;87.70
32506;DHT22;18955;51.224;8.482;2023-05-09T05:19:22;11.50;87.90
32506;DHT22;18955;51.224;8.482;2023-05-09T05:21:48;11.50;88.00
32506;DHT22;18955;51.224;8.482;2023-05-09T05:24:14;11.60;88.10
32506;DHT22;18955;51.224;8.482;2023-05-09T05:26:40;11.50;88.10
32506;DHT22;18955;51.224;8.482;2023-05-09T05:29:07;11.50;88.10
32506;DHT22;18955;51.224;8.482;2023-05-09T05:31:33;11.50;88.20
32506;DHT22;18955;51.224;8.482;2023-05-09T05:33:59;11.60;88.30
32506;DHT22;18955;51.224;8.482;2023-05-09T05:36:25;11.50;88.40
32506;DHT22;18955;51.224;8.482;2023-05-09T05:38:51;11.60;88.40
32506;DHT22;18955;51.224;8.482;2023-05-09T05:41:17;11.50;88.40
32506;DHT22;18955;51.224;8.482;2023-05-09T05:43:44;11.60;88.30
32506;DHT22;18955;51.224;8.482;2023-05-09T05:46:10;11.60;88.30
32506;DHT22;18955;51.224;8.482;2023-05-09T05:48:37;11.60;88.40
32506;DHT22;18955;51.224;8.482;2023-05-09T05:51:03;11.60;88.50
32506;DHT22;18955;51.224;8.482;2023-05-09T05:53:31;11.60;88.40
32506;DHT22;18955;51.224;8.482;2023-05-09T05:55:57;11.60;88.30
32506;DHT22;18955;51.224;8.482;2023-05-09T05:58:23;11.60;88.40
32506;DHT22;18955;51.224;8.482;2023-05-09T06:00:50;11.60;88.20
32506;DHT22;18955;51.224;8.482;2023-05-09T06:03:16;11.60;88.20
32506;DHT22;18955;51.224;8.482;2023-05-09T06:06:03;11.60;88.20
32506;DHT22;18955;51.224;8.482;2023-05-09T06:08:30;11.60;88.30
32506;DHT22;18955;51.224;8.482;2023-05-09T06:10:59;11.60;88.20
32506;DHT22;18955;51.224;8.482;2023-05-09T06:13:25;11.60;88.10
32506;DHT22;18955;51.224;8.482;2023-05-09T06:15:56;11.70;88.20
32506;DHT22;18955;51.224;8.482;2023-05-09T06:18:22;11.70;88.20
32506;DHT22;18955;51.224;8.482;2023-05-09T06:20:48;11.70;88.30
32506;DHT22;18955;51.224;8.482;2023-05-09T06:23:14;11.70;88.20
32506;DHT22;18955;51.224;8.482;2023-05-09T06:25:46;11.70;88.20
32506;DHT22;18955;51.224;8.482;2023-05-09T06:28:12;11.70;88.10
32506;DHT22;18955;51.224;8.482;2023-05-09T06:30:38;11.70;88.10
32506;DHT22;18955;51.224;8.482;2023-05-09T06:33:04;11.80;88.20
32506;DHT22;18955;51.224;8.482;2023-05-09T06:35:30;11.80;88.10
32506;DHT22;18955;51.224;8.482;2023-05-09T06:37:56;11.70;88.10
32506;DHT22;18955;51.224;8.482;2023-05-09T06:40:22;11.80;88.00
32506;DHT22;18955;51.224;8.482;2023-05-09T06:42:48;11.80;87.90
32506;DHT22;18955;51.224;8.482;2023-05-09T06:45:15;11.80;88.00
32506;DHT22;18955;51.224;8.482;2023-05-09T06:47:41;11.80;88.00
32506;DHT22;18955;51.224;8.482;2023-05-09T06:50:07;11.80;88.10
32506;DHT22;18955;51.224;8.482;2023-05-09T06:52:33;11.90;88.10
32506;DHT22;18955;51.224;8.482;2023-05-09T06:54:59;11.80;88.00
32506;DHT22;18955;51.224;8.482;2023-05-09T06:57:25;11.90;88.10
32506;DHT22;18955;51.224;8.482;2023-05-09T06:59:51;11.90;88.10
32506;DHT22;18955;51.224;8.482;2023-05-09T07:02:17;11.90;88.00
32506;DHT22;18955;51.224;8.482;2023-05-09T07:04:43;11.90;88.00
32506;DHT22;18955;51.224;8.482;2023-05-09T07:07:09;11.90;87.90
32506;DHT22;18955;51.224;8.482;2023-05-09T07:09:35;11.90;88.30
32506;DHT22;18955;51.224;8.482;2023-05-09T07:12:02;11.90;88.20
32506;DHT22;18955;51.224;8.482;2023-05-09T07:14:28;11.90;88.10
32506;DHT22;18955;51.224;8.482;2023-05-09T07:16:54;11.90;88.20
32506;DHT22;18955;51.224;8.482;2023-05-09T07:19:20;11.90;88.10
32506;DHT22;18955;51.224;8.482;2023-05-09T07:21:46;11.90;88.10
32506;DHT22;18955;51.224;8.482;2023-05-09T07:24:12;12.00;88.10
32506;DHT22;18955;51.224;8.482;2023-05-09T07:26:38;12.00;88.00
32506;DHT22;18955;51.224;8.482;2023-05-09T07:29:04;12.00;88.10
32506;DHT22;18955;51.224;8.482;2023-05-09T07:31:30;12.00;88.00
32506;DHT22;18955;51.224;8.482;2023-05-09T07:33:56;12.00;87.90
32506;DHT22;18955;51.224;8.482;2023-05-09T07:36:22;12.10;87.90
32506;DHT22;18955;51.224;8.482;2023-05-09T07:38:48;12.10;87.90
32506;DHT22;18955;51.224;8.482;2023-05-09T07:41:17;12.10;87.90
32506;DHT22;18955;51.224;8.482;2023-05-09T07:43:43;12.10;87.90
32506;DHT22;18955;51.224;8.482;2023-05-09T07:46:09;12.20;87.90
32506;DHT22;18955;51.224;8.482;2023-05-09T07:48:36;12.20;87.80
32506;DHT22;18955;51.224;8.482;2023-05-09T07:51:01;12.20;87.90
32506;DHT22;18955;51.224;8.482;2023-05-09T07:53:28;12.20;88.00
32506;DHT22;18955;51.224;8.482;2023-05-09T07:55:53;12.20;88.00
32506;DHT22;18955;51.224;8.482;2023-05-09T07:58:20;12.20;88.10
32506;DHT22;18955;51.224;8.482;2023-05-09T08:00:46;12.30;88.30
32506;DHT22;18955;51.224;8.482;2023-05-09T08:03:12;12.30;88.20
32506;DHT22;18955;51.224;8.482;2023-05-09T08:05:38;12.30;88.10
32506;DHT22;18955;51.224;8.482;2023-05-09T08:08:04;12.30;88.10
32506;DHT22;18955;51.224;8.482;2023-05-09T08:10:30;12.30;88.20
32506;DHT22;18955;51.224;8.482;2023-05-09T08:12:56;12.40;88.20
32506;DHT22;18955;51.224;8.482;2023-05-09T08:15:22;12.40;88.20
32506;DHT22;18955;51.224;8.482;2023-05-09T08:17:48;12.40;88.20
32506;DHT22;18955;51.224;8.482;2023-05-09T08:20:15;12.40;88.30
32506;DHT22;18955;51.224;8.482;2023-05-09T08:22:42;12.50;88.30
32506;DHT22;18955;51.224;8.482;2023-05-09T08:25:08;12.50;88.30
32506;DHT22;18955;51.224;8.482;2023-05-09T08:27:34;12.50;88.10
32506;DHT22;18955;51.224;8.482;2023-05-09T08:30:00;12.60;88.20
32506;DHT22;18955;51.224;8.482;2023-05-09T08:32:26;12.60;88.30
32506;DHT22;18955;51.224;8.482;2023-05-09T08:34:52;12.60;88.20
32506;DHT22;18955;51.224;8.482;2023-05-09T08:37:18;12.70;88.30
32506;DHT22;18955;51.224;8.482;2023-05-09T08:39:44;12.70;88.30
32506;DHT22;18955;51.224;8.482;2023-05-09T08:42:10;12.70;88.20
32506;DHT22;18955;51.224;8.482;2023-05-09T08:44:37;12.70;88.40
32506;DHT22;18955;51.224;8.482;2023-05-09T08:47:03;12.80;88.50
32506;DHT22;18955;51.224;8.482;2023-05-09T08:49:29;12.80;88.60
32506;DHT22;18955;51.224;8.482;2023-05-09T08:51:56;12.80;88.60
32506;DHT22;18955;51.224;8.482;2023-05-09T08:54:22;12.80;88.50
32506;DHT22;18955;51.224;8.482;2023-05-09T08:56:48;12.90;88.50
32506;DHT22;18955;51.224;8.482;2023-05-09T08:59:15;12.80;88.40
32506;DHT22;18955;51.224;8.482;2023-05-09T09:01:42;12.90;88.40
32506;DHT22;18955;51.224;8.482;2023-05-09T09:04:08;12.90;88.60
32506;DHT22;18955;51.224;8.482;2023-05-09T09:06:36;12.90;88.60
32506;DHT22;18955;51.224;8.482;2023-05-09T09:09:04;12.90;88.70
32506;DHT22;18955;51.224;8.482;2023-05-09T09:11:31;12.90;88.60
32506;DHT22;18955;51.224;8.482;2023-05-09T09:14:00;13.00;88.60
32506;DHT22;18955;51.224;8.482;2023-05-09T09:16:27;13.00;88.70
32506;DHT22;18955;51.224;8.482;2023-05-09T09:18:53;12.90;88.60
32506;DHT22;18955;51.224;8.482;2023-05-09T09:21:20;13.00;88.60
32506;DHT22;18955;51.224;8.482;2023-05-09T09:23:46;13.00;88.70
32506;DHT22;18955;51.224;8.482;2023-05-09T09:26:13;13.00;88.60
32506;DHT22;18955;51.224;8.482;2023-05-09T09:28:40;13.00;88.70
32506;DHT22;18955;51.224;8.482;2023-05-09T09:31:23;13.00;88.70
32506;DHT22;18955;51.224;8.482;2023-05-09T09:33:49;13.10;88.70
32506;DHT22;18955;51.224;8.482;2023-05-09T09:36:25;13.10;88.70
32506;DHT22;18955;51.224;8.482;2023-05-09T09:38:54;13.10;88.70
32506;DHT22;18955;51.224;8.482;2023-05-09T09:41:21;13.10;88.70
32506;DHT22;18955;51.224;8.482;2023-05-09T09:43:54;13.10;88.70
32506;DHT22;18955;51.224;8.482;2023-05-09T09:46:20;13.10;88.60
32506;DHT22;18955;51.224;8.482;2023-05-09T09:48:46;13.20;88.70
32506;DHT22;18955;51.224;8.482;2023-05-09T09:51:19;13.20;88.50
32506;DHT22;18955;51.224;8.482;2023-05-09T09:53:46;13.20;88.50
32506;DHT22;18955;51.224;8.482;2023-05-09T09:56:12;13.20;88.50
32506;DHT22;18955;51.224;8.482;2023-05-09T09:58:38;13.30;88.60
32506;DHT22;18955;51.224;8.482;2023-05-09T10:01:11;13.30;88.60
32506;DHT22;18955;51.224;8.482;2023-05-09T10:03:44;13.30;88.60
32506;DHT22;18955;51.224;8.482;2023-05-09T10:06:11;13.40;88.70
32506;DHT22;18955;51.224;8.482;2023-05-09T10:08:38;13.30;88.70
32506;DHT22;18955;51.224;8.482;2023-05-09T10:11:04;13.40;88.70
32506;DHT22;18955;51.224;8.482;2023-05-09T10:13:32;13.40;88.60
32506;DHT22;18955;51.224;8.482;2023-05-09T10:15:59;13.50;88.70
32506;DHT22;18955;51.224;8.482;2023-05-09T10:18:26;13.50;88.70
32506;DHT22;18955;51.224;8.482;2023-05-09T10:20:53;13.50;88.70
32506;DHT22;18955;51.224;8.482;2023-05-09T10:23:21;13.50;88.70
32506;DHT22;18955;51.224;8.482;2023-05-09T10:26:23;13.60;88.80
32506;DHT22;18955;51.224;8.482;2023-05-09T10:28:41;13.60;88.80
32506;DHT22;18955;51.224;8.482;2023-05-09T10:31:14;13.60;88.80
32506;DHT22;18955;51.224;8.482;2023-05-09T10:33:47;13.60;88.90
32506;DHT22;18955;51.224;8.482;2023-05-09T10:36:14;13.60;88.80
32506;DHT22;18955;51.224;8.482;2023-05-09T10:38:41;13.60;88.80
32506;DHT22;18955;51.224;8.482;2023-05-09T10:41:09;13.70;88.80
32506;DHT22;18955;51.224;8.482;2023-05-09T10:43:35;13.70;88.80
32506;DHT22;18955;51.224;8.482;2023-05-09T10:46:02;13.70;88.80
32506;DHT22;18955;51.224;8.482;2023-05-09T10:48:28;13.70;88.80
32506;DHT22;18955;51.224;8.482;2023-05-09T10:50:55;13.70;88.80
32506;DHT22;18955;51.224;8.482;2023-05-09T10:53:21;13.70;88.80
32506;DHT22;18955;51.224;8.482;2023-05-09T10:55:50;13.80;88.90
32506;DHT22;18955;51.224;8.482;2023-05-09T11:00:56;13.80;88.80
32506;DHT22;18955;51.224;8.482;2023-05-09T11:03:26;13.90;88.80
32506;DHT22;18955;51.224;8.482;2023-05-09T11:05:53;13.90;88.80
32506;DHT22;18955;51.224;8.482;2023-05-09T11:10:46;13.90;88.70
32506;DHT22;18955;51.224;8.482;2023-05-09T11:13:12;13.90;88.70
32506;DHT22;18955;51.224;8.482;2023-05-09T11:15:49;14.00;88.70
32506;DHT22;18955;51.224;8.482;2023-05-09T11:18:15;14.00;88.70
32506;DHT22;18955;51.224;8.482;2023-05-09T11:20:41;14.00;88.70
32506;DHT22;18955;51.224;8.482;2023-05-09T11:23:08;14.00;88.70
32506;DHT22;18955;51.224;8.482;2023-05-09T11:25:37;14.00;88.70
32506;DHT22;18955;51.224;8.482;2023-05-09T11:28:04;14.00;88.60
32506;DHT22;18955;51.224;8.482;2023-05-09T11:30:38;14.00;88.60
32506;DHT22;18955;51.224;8.482;2023-05-09T11:33:04;14.10;88.60
32506;DHT22;18955;51.224;8.482;2023-05-09T11:35:32;14.10;88.60
32506;DHT22;18955;51.224;8.482;2023-05-09T11:38:02;14.10;88.60
32506;DHT22;18955;51.224;8.482;2023-05-09T11:40:29;14.10;88.60
32506;DHT22;18955;51.224;8.482;2023-05-09T11:42:56;14.20;88.70
32506;DHT22;18955;51.224;8.482;2023-05-09T11:45:23;14.20;88.60
32506;DHT22;18955;51.224;8.482;2023-05-09T11:47:51;14.20;88.60
32506;DHT22;18955;51.224;8.482;2023-05-09T11:50:17;14.20;88.60
32506;DHT22;18955;51.224;8.482;2023-05-09T11:52:45;14.30;88.60
32506;DHT22;18955;51.224;8.482;2023-05-09T11:55:12;14.30;88.50
32506;DHT22;18955;51.224;8.482;2023-05-09T11:57:39;14.30;88.40
32506;DHT22;18955;51.224;8.482;2023-05-09T12:00:06;14.30;88.40
32506;DHT22;18955;51.224;8.482;2023-05-09T12:02:34;14.40;88.50
32506;DHT22;18955;51.224;8.482;2023-05-09T12:05:10;14.40;88.50
32506;DHT22;18955;51.224;8.482;2023-05-09T12:07:36;14.40;88.60
32506;DHT22;18955;51.224;8.482;2023-05-09T12:10:07;14.40;88.60
32506;DHT22;18955;51.224;8.482;2023-05-09T12:12:34;14.40;88.50
32506;DHT22;18955;51.224;8.482;2023-05-09T12:15:01;14.50;88.50
32506;DHT22;18955;51.224;8.482;2023-05-09T12:17:29;14.50;88.40
32506;DHT22;18955;51.224;8.482;2023-05-09T12:19:57;14.50;88.30
32506;DHT22;18955;51.224;8.482;2023-05-09T12:22:23;14.60;88.30
32506;DHT22;18955;51.224;8.482;2023-05-09T12:24:49;14.60;88.30
32506;DHT22;18955;51.224;8.482;2023-05-09T12:27:15;14.60;88.30
32506;DHT22;18955;51.224;8.482;2023-05-09T12:29:41;14.60;88.30
32506;DHT22;18955;51.224;8.482;2023-05-09T12:32:11;14.60;88.20
32506;DHT22;18955;51.224;8.482;2023-05-09T12:34:37;14.70;88.30
32506;DHT22;18955;51.224;8.482;2023-05-09T12:37:03;14.70;88.30
32506;DHT22;18955;51.224;8.482;2023-05-09T12:39:38;14.70;88.20
32506;DHT22;18955;51.224;8.482;2023-05-09T12:42:10;14.70;88.20
32506;DHT22;18955;51.224;8.482;2023-05-09T12:44:36;14.80;88.20
32506;DHT22;18955;51.224;8.482;2023-05-09T12:47:02;14.80;88.10
32506;DHT22;18955;51.224;8.482;2023-05-09T12:49:29;14.80;88.00
32506;DHT22;18955;51.224;8.482;2023-05-09T12:51:56;14.80;88.10
32506;DHT22;18955;51.224;8.482;2023-05-09T12:54:23;14.80;88.10
32506;DHT22;18955;51.224;8.482;2023-05-09T12:56:50;14.80;88.00
32506;DHT22;18955;51.224;8.482;2023-05-09T12:59:24;14.80;88.10
32506;DHT22;18955;51.224;8.482;2023-05-09T13:01:52;14.80;88.10
32506;DHT22;18955;51.224;8.482;2023-05-09T13:04:19;14.90;88.10
32506;DHT22;18955;51.224;8.482;2023-05-09T13:06:47;14.90;88.10
32506;DHT22;18955;51.224;8.482;2023-05-09T13:09:14;14.90;88.10
32506;DHT22;18955;51.224;8.482;2023-05-09T13:11:40;14.90;88.00
32506;DHT22;18955;51.224;8.482;2023-05-09T13:14:07;14.90;88.00
32506;DHT22;18955;51.224;8.482;2023-05-09T13:16:33;15.00;88.10
32506;DHT22;18955;51.224;8.482;2023-05-09T13:18:59;15.00;88.00
32506;DHT22;18955;51.224;8.482;2023-05-09T13:21:26;15.00;88.10
32506;DHT22;18955;51.224;8.482;2023-05-09T13:23:52;15.00;88.00
32506;DHT22;18955;51.224;8.482;2023-05-09T13:26:19;15.00;88.00
32506;DHT22;18955;51.224;8.482;2023-05-09T13:28:45;15.10;88.00
32506;DHT22;18955;51.224;8.482;2023-05-09T13:31:11;15.10;87.90
32506;DHT22;18955;51.224;8.482;2023-05-09T13:33:37;15.10;87.90
32506;DHT22;18955;51.224;8.482;2023-05-09T13:36:04;15.20;87.90
32506;DHT22;18955;51.224;8.482;2023-05-09T13:38:30;15.20;87.90
32506;DHT22;18955;51.224;8.482;2023-05-09T13:41:00;15.20;87.90
32506;DHT22;18955;51.224;8.482;2023-05-09T13:43:26;15.20;87.90
32506;DHT22;18955;51.224;8.482;2023-05-09T13:45:52;15.20;87.90
32506;DHT22;18955;51.224;8.482;2023-05-09T13:48:18;15.20;88.10
32506;DHT22;18955;51.224;8.482;2023-05-09T13:50:44;15.20;87.90
32506;DHT22;18955;51.224;8.482;2023-05-09T13:53:10;15.20;87.90
32506;DHT22;18955;51.224;8.482;2023-05-09T13:55:36;15.30;88.00
32506;DHT22;18955;51.224;8.482;2023-05-09T13:58:02;15.30;88.00
32506;DHT22;18955;51.224;8.482;2023-05-09T14:00:28;15.30;87.90
32506;DHT22;18955;51.224;8.482;2023-05-09T14:02:54;15.30;87.90
32506;DHT22;18955;51.224;8.482;2023-05-09T14:05:20;15.30;87.90
32506;DHT22;18955;51.224;8.482;2023-05-09T14:07:47;15.30;88.00
32506;DHT22;18955;51.224;8.482;2023-05-09T14:10:13;15.30;88.00
32506;DHT22;18955;51.224;8.482;2023-05-09T14:12:39;15.30;88.00
32506;DHT22;18955;51.224;8.482;2023-05-09T14:15:08;15.30;88.00
32506;DHT22;18955;51.224;8.482;2023-05-09T14:17:35;15.40;88.00
32506;DHT22;18955;51.224;8.482;2023-05-09T14:20:01;15.40;88.00
32506;DHT22;18955;51.224;8.482;2023-05-09T14:22:28;15.40;88.00
32506;DHT22;18955;51.224;8.482;2023-05-09T14:24:54;15.40;88.00
32506;DHT22;18955;51.224;8.482;2023-05-09T14:27:22;15.40;88.70
32506;DHT22;18955;51.224;8.482;2023-05-09T14:29:48;15.40;88.20
32506;DHT22;18955;51.224;8.482;2023-05-09T14:32:14;15.40;88.20
32506;DHT22;18955;51.224;8.482;2023-05-09T14:34:40;15.40;88.20
32506;DHT22;18955;51.224;8.482;2023-05-09T14:37:06;15.40;88.50
32506;DHT22;18955;51.224;8.482;2023-05-09T14:39:41;15.40;88.20
32506;DHT22;18955;51.224;8.482;2023-05-09T14:42:07;15.40;88.40
32506;DHT22;18955;51.224;8.482;2023-05-09T14:44:36;15.40;88.90
32506;DHT22;18955;51.224;8.482;2023-05-09T14:47:03;15.50;88.40
32506;DHT22;18955;51.224;8.482;2023-05-09T14:49:29;15.40;88.30
32506;DHT22;18955;51.224;8.482;2023-05-09T14:51:55;15.40;88.40
32506;DHT22;18955;51.224;8.482;2023-05-09T14:54:21;15.50;88.20
32506;DHT22;18955;51.224;8.482;2023-05-09T14:56:47;15.50;88.30
32506;DHT22;18955;51.224;8.482;2023-05-09T14:59:13;15.50;88.30
32506;DHT22;18955;51.224;8.482;2023-05-09T15:01:39;15.50;88.10
32506;DHT22;18955;51.224;8.482;2023-05-09T15:04:05;15.50;88.10
32506;DHT22;18955;51.224;8.482;2023-05-09T15:06:31;15.50;88.10
32506;DHT22;18955;51.224;8.482;2023-05-09T15:08:58;15.50;88.10
32506;DHT22;18955;51.224;8.482;2023-05-09T15:11:24;15.50;88.10
32506;DHT22;18955;51.224;8.482;2023-05-09T15:13:51;15.50;88.10
32506;DHT22;18955;51.224;8.482;2023-05-09T15:16:17;15.60;88.10
32506;DHT22;18955;51.224;8.482;2023-05-09T15:18:43;15.50;88.10
32506;DHT22;18955;51.224;8.482;2023-05-09T15:21:10;15.60;88.10
32506;DHT22;18955;51.224;8.482;2023-05-09T15:23:37;15.60;88.10
32506;DHT22;18955;51.224;8.482;2023-05-09T15:26:06;15.60;88.10
32506;DHT22;18955;51.224;8.482;2023-05-09T15:28:33;15.60;88.00
32506;DHT22;18955;51.224;8.482;2023-05-09T15:31:00;15.60;87.90
32506;DHT22;18955;51.224;8.482;2023-05-09T15:33:27;15.60;87.80
32506;DHT22;18955;51.224;8.482;2023-05-09T15:35:55;15.60;87.70
32506;DHT22;18955;51.224;8.482;2023-05-09T15:38:22;15.60;87.80
32506;DHT22;18955;51.224;8.482;2023-05-09T15:40:48;15.60;87.90
32506;DHT22;18955;51.224;8.482;2023-05-09T15:43:14;15.60;87.80
32506;DHT22;18955;51.224;8.482;2023-05-09T15:45:40;15.60;87.80
32506;DHT22;18955;51.224;8.482;2023-05-09T15:48:10;15.60;87.80
32506;DHT22;18955;51.224;8.482;2023-05-09T15:50:36;15.70;87.80